createdAt,value
2023-05-09T06:36:57.456Z,144583.81
2023-05-09T06:42:03.854Z,144497.81
2023-05-09T06:47:10.517Z,144643.66
2023-05-09T06:52:16.005Z,144578.78
2023-05-09T06:57:19.695Z,144497.81
2023-05-09T07:02:23.223Z,144414.31
2023-05-09T07:07:30.613Z,144394.34
2023-05-09T07:12:34.299Z,144176.41
2023-05-09T07:17:37.761Z,144263.56
2023-05-09T07:22:42.590Z,144335.81
2023-05-09T07:27:46.574Z,144243.66
2023-05-09T07:32:50.391Z,144268.53
2023-05-09T07:37:55.316Z,144267.28
2023-05-09T07:42:58.800Z,144129.13
2023-05-09T07:48:02.320Z,143966.09
2023-05-09T07:53:10.833Z,143957.34
2023-05-09T07:58:14.690Z,143895.16
2023-05-09T08:03:19.613Z,143795.72
2023-05-09T08:08:25.374Z,143780.78
2023-05-09T08:13:29.654Z,143711.19
2023-05-09T08:18:33.960Z,143681.34
2023-05-09T08:23:40.621Z,143641.56
2023-05-09T08:28:44.747Z,143672.63
2023-05-09T08:33:48.356Z,143688.78
2023-05-09T08:38:53.249Z,143703.72
2023-05-09T08:43:57.110Z,143708.69
2023-05-09T08:49:01.845Z,143757.13
2023-05-09T08:54:21.415Z,143688.78
2023-05-09T08:59:27.209Z,143743.47
2023-05-09T09:04:30.958Z,143798.19
2023-05-09T09:09:36.917Z,143712.41
2023-05-09T09:14:42.885Z,143741.00
2023-05-09T09:19:50.562Z,143758.38
2023-05-09T09:24:55.873Z,143834.25
2023-05-09T09:30:07.547Z,143851.66
2023-05-09T09:35:39.530Z,143923.78
2023-05-09T09:40:53.928Z,143885.22
2023-05-09T09:45:58.206Z,143896.41
2023-05-09T09:51:05.150Z,143943.69
2023-05-09T09:56:11.339Z,143939.97
2023-05-09T10:01:16.446Z,144025.81
2023-05-09T10:06:20.296Z,144017.13
2023-05-09T10:11:25.223Z,144053.19
2023-05-09T10:16:40.173Z,144146.53
2023-05-09T10:21:54.340Z,144104.22
2023-05-09T10:27:05.875Z,144121.63
2023-05-09T10:32:13.796Z,144134.09
2023-05-09T10:37:18.198Z,144197.56
2023-05-09T10:42:25.545Z,144257.34
2023-05-09T10:47:30.643Z,144278.53
2023-05-09T10:52:34.603Z,144277.28
2023-05-09T10:57:40.423Z,144300.94
2023-05-09T11:02:43.979Z,144251.13
2023-05-09T11:07:47.923Z,144238.63
2023-05-09T11:12:57.925Z,144279.75
2023-05-09T11:18:08.836Z,144302.19
2023-05-09T11:23:12.613Z,144317.13
2023-05-09T11:28:29.486Z,144347.00
2023-05-09T11:33:37.005Z,144333.31
2023-05-09T11:38:42.692Z,144369.44
2023-05-09T11:43:47.685Z,144411.81
2023-05-09T11:48:51.354Z,144354.50
2023-05-09T11:53:55.051Z,144408.03
2023-05-09T11:58:59.916Z,144425.50
2023-05-09T12:04:04.264Z,144393.13
2023-05-09T12:09:10.438Z,144449.19
2023-05-09T12:14:27.156Z,144415.56
2023-05-09T12:19:30.684Z,144459.13
2023-05-09T12:24:36.344Z,144454.16
2023-05-09T12:29:46.239Z,144409.28
2023-05-09T12:34:50.315Z,144376.91
2023-05-09T12:40:05.078Z,144421.78
2023-05-09T12:45:12.915Z,144480.34
2023-05-09T12:50:16.755Z,144485.31
2023-05-09T12:55:21.165Z,144495.25
2023-05-09T13:00:27.624Z,144500.28
2023-05-09T13:05:35.377Z,144510.25
2023-05-09T13:10:40.150Z,144538.91
2023-05-09T13:15:49.309Z,144573.81
2023-05-09T13:20:56.093Z,144557.63
2023-05-09T13:26:00.142Z,144573.81
2023-05-09T13:31:05.288Z,144558.88
2023-05-09T13:36:12.085Z,144585.06
2023-05-09T13:41:20.462Z,144598.75
2023-05-09T13:46:25.980Z,144590.03
2023-05-09T13:51:29.954Z,144592.53
2023-05-09T13:56:33.420Z,144567.59
2023-05-09T14:01:38.414Z,144631.16
2023-05-09T14:06:47.916Z,144571.31
2023-05-09T14:11:53.178Z,144573.81
2023-05-09T14:16:59.095Z,144607.47
2023-05-09T14:22:05.161Z,144570.06
2023-05-09T14:27:11.160Z,144580.03
2023-05-09T14:32:19.296Z,144525.22
2023-05-09T14:37:48.248Z,144570.06
2023-05-09T14:43:15.221Z,144542.66
2023-05-09T14:48:20.152Z,144553.88
2023-05-09T14:54:13.153Z,144604.97
2023-05-09T14:59:00.603Z,144543.88
2023-05-09T15:10:42.430Z,144543.88
2023-05-09T15:16:03.170Z,144550.13
2023-05-09T15:21:09.523Z,144520.19
2023-05-09T15:26:44.600Z,144522.69
2023-05-09T15:32:52.823Z,144475.34
2023-05-09T15:38:01.466Z,144467.91
2023-05-09T15:43:09.904Z,144512.72
2023-05-09T15:48:16.767Z,144492.78
2023-05-09T15:53:23.220Z,144492.78
2023-05-09T15:58:27.481Z,144512.72
2023-05-09T16:03:30.989Z,144497.81
2023-05-09T16:08:35.931Z,144475.34
2023-05-09T16:13:39.761Z,144470.38
2023-05-09T16:18:43.533Z,144467.91
2023-05-09T16:23:50.463Z,144460.38
2023-05-09T16:28:54.148Z,144428.00
2023-05-09T16:33:58.141Z,144445.44
2023-05-09T16:39:03.209Z,144512.72
2023-05-09T16:44:06.696Z,144482.81
2023-05-09T16:49:10.420Z,144437.94
2023-05-09T16:54:16.002Z,144413.06
2023-05-09T16:59:20.106Z,144376.91
2023-05-09T17:04:25.673Z,144353.22
2023-05-09T17:09:33.706Z,144329.59
2023-05-09T17:14:37.099Z,144327.09
2023-05-09T17:19:40.735Z,144319.59
2023-05-09T17:24:45.772Z,144297.16
2023-05-09T17:29:50.112Z,144231.19
2023-05-09T17:34:54.399Z,144206.28
2023-05-09T17:40:06.091Z,144198.81
2023-05-09T17:45:14.319Z,144182.59
2023-05-09T17:50:22.976Z,144192.59
2023-05-09T17:55:28.294Z,144126.59
2023-05-09T18:00:46.563Z,144107.94
2023-05-09T18:05:56.217Z,144075.59
2023-05-09T18:11:11.840Z,144034.50
2023-05-09T18:16:25.453Z,144032.03
2023-05-09T18:21:30.615Z,144003.41
2023-05-09T18:26:35.944Z,143966.09
2023-05-09T18:31:41.498Z,143937.47
2023-05-09T18:43:16.581Z,143859.13
2023-05-09T18:48:20.626Z,143818.09
2023-05-09T18:59:17.682Z,143742.25
2023-05-09T19:04:58.898Z,143736.03
2023-05-09T19:10:25.781Z,143658.97
2023-05-09T19:21:05.969Z,143608.00
2023-05-09T19:26:11.251Z,143576.94
2023-05-09T19:31:31.467Z,143549.63
2023-05-09T19:36:36.877Z,143511.13
2023-05-09T19:42:04.621Z,143468.88
2023-05-09T19:47:18.558Z,143445.28
2023-05-09T19:52:32.417Z,143427.94
2023-05-09T19:57:40.255Z,143415.47
2023-05-09T20:02:44.567Z,143379.50
2023-05-09T20:07:58.323Z,143352.19
2023-05-09T20:13:04.069Z,143318.66
2023-05-09T20:18:09.783Z,143296.31
2023-05-09T20:23:17.247Z,143266.53
2023-05-09T20:28:24.201Z,143269.00
2023-05-09T20:33:27.986Z,143249.16
2023-05-09T20:38:39.008Z,143219.38
2023-05-09T20:43:44.088Z,143199.53
2023-05-09T20:48:48.567Z,143174.72
2023-05-09T20:53:53.554Z,143164.78
2023-05-09T20:58:59.985Z,143148.69
2023-05-09T21:04:03.982Z,143133.75
2023-05-09T21:09:10.114Z,143105.25
2023-05-09T21:14:13.651Z,143125.09
2023-05-09T21:19:17.287Z,143135.00
2023-05-09T21:24:22.305Z,143132.53
2023-05-09T21:29:25.712Z,143137.47
2023-05-09T21:34:29.639Z,143131.28
